Terminal Aerodrome Forecast
Issued by NWS

Home | Current Version | Previous Version | Text Only | Print | Product List | Glossary On
Versions: 1 2 3 4 5 6 7 8 9 10 11 12 13
505
FTAK31 PAJN 231140
TAFAJN
TAF
PAJN 231140Z 2312/2412 08003KT P6SM SCT060 OVC120
     FM231400 09004KT P6SM VCSH SCT035 OVC060
     FM231700 09005KT P6SM -SHRASN BKN025 OVC035
     FM232100 12008KT 6SM -SHRA BR SCT020 OVC030
     FM240400 09005KT P6SM VCSH SCT030 BKN060=

USA.gov is the U.S. government's official web portal to all federal, state and local government web resources and services.